LIRFLICR

Guest
Details From LIRF - Roma Fiumicino Leonardo Da Vinci
To LICR - Reggio Calabria
Flight Number -
Tags Generated
Created
Modified
Stats Distance 273 nm / 506 km
Max Altitude 0 ft / 0 m
Waypoints 3
Social Downloads 3
Likes 0
Share VATSIM

Download

Looking for another format? Having issues loading an existing format? Contact us
Advertisement - Login to hide

Notes

Generated

Route

LIRF RCA01 LICR

ID Type Via Altitude Latitude Longitude Leg Dist Tot Dist Heading (true) Name
O LIRF APT - 0 ft / 0 m 41.79932˚ 12.23212˚ - 0 nm - -
RCA01 FIX - 0 ft / 0 m 38.09132˚ 15.63758˚ 272 nm 272 nm 144° / 146° -
O LICR APT - 0 ft / 0 m 38.07548˚ 15.63813˚ 0 nm 273 nm 178° / 178° -

Altitude Profile

Advertisement - Login to hide

Weather


0- 5 10 15 20 25 30 35+ Temperature / ° C

Clouds and Precipitation
Forecast for 2018-05-27 06:00 UTC. Updated 41 minutes ago

Ground ~20,000 ft ~40,000 ft Winds

LIRF

Details ICAO LIRF (FCO)
Name Roma Fiumicino Leonardo Da Vinci
Region Italy
Timezone Europe/Rome (UTC+2.0)
Stats Elevation 15 ft / 5 m (AMSL)
Location 41.810809° 12.250897°
Runways 3
Magnetic Variation 3.042° E

METAR

LIRF 270550Z VRB01KT CAVOK 20/18 Q1018 NOSIG

Decode

TAF

TAF LIRF 262300Z 2700/2806 VRB04KT CAVOK TEMPO 2701/2705 2000 BR BECMG 2708/2710 23012KT BECMG 2716/2718 VRB04KT

Decode

Departure Runways

ID Width Length Bearing (true) Bearing (mag) Surface Threshold Offset Overrun Length
07 148 ft / 45 m 10,835 ft / 3,302 m 69.67° 66.63° Asphalt 1,365 ft / 416 m 0 ft / 0 m
16L 197 ft / 60 m 12,832 ft / 3,911 m 162.67° 159.63° Asphalt 0 ft / 0 m 0 ft / 0 m
16R 197 ft / 60 m 12,822 ft / 3,908 m 162.66° 159.62° Asphalt 0 ft / 0 m 0 ft / 0 m
25 148 ft / 45 m 10,835 ft / 3,302 m 249.70° 246.66° Asphalt 0 ft / 0 m 0 ft / 0 m
34L 197 ft / 60 m 12,822 ft / 3,908 m 342.67° 339.63° Asphalt 1,053 ft / 321 m 0 ft / 0 m
34R 197 ft / 60 m 12,832 ft / 3,911 m 342.68° 339.64° Asphalt 0 ft / 0 m 0 ft / 0 m

LICR

Details ICAO LICR (REG)
Name Reggio Calabria
Region Italy
Timezone Europe/Rome (UTC+2.0)
Stats Elevation 96 ft / 29 m (AMSL)
Location 38.072573° 15.649317°
Runways 2
Magnetic Variation 3.389° E

METAR

LICR 270550Z VRB02KT CAVOK 23/15 Q1018

Decode

TAF

Not found

Destination Runways

ID Width Length Bearing (true) Bearing (mag) Surface Threshold Offset Overrun Length
11 148 ft / 45 m 6,123 ft / 1,866 m 111.76° 108.37° Asphalt 203 ft / 62 m 0 ft / 0 m
15 148 ft / 45 m 6,640 ft / 2,024 m 151.90° 148.51° Asphalt 784 ft / 239 m 0 ft / 0 m
29 148 ft / 45 m 6,123 ft / 1,866 m 291.77° 288.38° Asphalt 157 ft / 48 m 0 ft / 0 m
33 148 ft / 45 m 6,640 ft / 2,024 m 331.90° 328.51° Asphalt 659 ft / 201 m 0 ft / 0 m

Approach Navaids

Runway Type Ident Frequency Range Bearing (true) Bearing (mag) Slope Elevation
33 Localiser REG 109.30 MHz 18 nm / 33 km 19.16° 15.78° - 95 ft / 29 m (AMSL)

Popular Alternatives